createdAt,value
2018-08-24T00:00:32.542Z,20.9
2018-08-24T00:01:22.025Z,21
2018-08-24T00:02:12.650Z,20.9
2018-08-24T00:03:01.859Z,20.9
2018-08-24T00:03:52.797Z,21
2018-08-24T00:04:42.827Z,20.9
2018-08-24T00:05:32.962Z,20.9
2018-08-24T00:06:22.932Z,21
2018-08-24T00:07:13.217Z,21
2018-08-24T00:08:03.115Z,21
2018-08-24T00:08:53.190Z,20.9
2018-08-24T00:09:42.920Z,20.9
2018-08-24T00:10:33.293Z,20.9
2018-08-24T00:11:23.343Z,20.9
2018-08-24T00:12:13.109Z,20.9
2018-08-24T00:31:13.643Z,20.8
2018-08-24T00:32:03.732Z,20.8
2018-08-24T00:32:53.483Z,20.8
2018-08-24T00:33:43.569Z,20.7
2018-08-24T00:34:34.136Z,20.8
2018-08-24T00:35:23.939Z,20.7
2018-08-24T00:36:13.986Z,20.7
2018-08-24T00:37:04.068Z,20.7
2018-08-24T00:37:54.131Z,20.7
2018-08-24T00:38:43.640Z,20.7
2018-08-24T00:39:33.991Z,20.6
2018-08-24T00:40:24.095Z,20.6
2018-08-24T00:41:13.853Z,20.7
2018-08-24T00:42:03.940Z,20.7
2018-08-24T00:42:54.252Z,20.7
2018-08-24T00:43:44.349Z,20.7
2018-08-24T00:44:34.676Z,20.6
2018-08-24T00:45:24.394Z,20.7
2018-08-24T00:46:15.026Z,20.7
2018-08-24T00:47:04.521Z,20.8
2018-08-24T00:47:54.658Z,20.7
2018-08-24T00:48:44.705Z,20.7
2018-08-24T00:49:34.773Z,20.6
2018-08-24T00:50:24.818Z,20.6
2018-08-24T00:51:15.414Z,20.6
2018-08-24T00:52:04.947Z,20.6
2018-08-24T00:52:55.247Z,20.6
2018-08-24T00:53:45.096Z,20.6
2018-08-24T00:54:35.429Z,20.6
2018-08-24T00:55:25.027Z,20.6
2018-08-24T00:56:14.991Z,20.6
2018-08-24T00:57:06.121Z,20.6
2018-08-24T00:57:55.124Z,20.6
2018-08-24T00:58:45.748Z,20.6
2018-08-24T00:59:35.811Z,20.6
2018-08-24T01:00:25.583Z,20.5
2018-08-24T01:01:15.655Z,20.5
2018-08-24T01:02:05.677Z,20.6
2018-08-24T01:02:55.221Z,20.5
2018-08-24T01:03:46.129Z,20.6
2018-08-24T01:04:36.232Z,20.5
2018-08-24T01:05:26.264Z,20.5
2018-08-24T01:06:16.313Z,20.5
2018-08-24T01:07:06.632Z,20.5
2018-08-24T01:07:56.419Z,20.5
2018-08-24T01:08:46.545Z,20.5
2018-08-24T01:09:36.025Z,20.5
2018-08-24T01:10:26.072Z,20.5
2018-08-24T01:11:16.462Z,20.6
2018-08-24T01:12:06.486Z,20.5
2018-08-24T01:12:56.545Z,20.5
2018-08-24T01:13:46.050Z,20.5
2018-08-24T01:14:36.982Z,20.6
2018-08-24T01:15:26.738Z,20.5
2018-08-24T01:16:16.486Z,20.4
2018-08-24T01:17:06.880Z,20.5
2018-08-24T01:17:57.453Z,20.4
2018-08-24T01:18:47.221Z,20.4
2018-08-24T01:19:37.046Z,20.4
2018-08-24T01:20:26.875Z,20.4
2018-08-24T01:21:16.913Z,20.4
2018-08-24T01:22:07.808Z,20.5
2018-08-24T01:22:57.610Z,20.4
2018-08-24T01:23:47.648Z,20.4
2018-08-24T01:24:37.450Z,20.4
2018-08-24T01:25:27.511Z,20.5
2018-08-24T01:26:18.082Z,20.4
2018-08-24T01:27:07.634Z,20.4
2018-08-24T01:27:56.847Z,20.4
2018-08-24T01:28:48.291Z,20.4
2018-08-24T01:29:37.888Z,20.4
2018-08-24T01:30:28.197Z,20.4
2018-08-24T01:31:17.947Z,20.4
2018-08-24T01:32:08.283Z,20.4
2018-08-24T01:32:58.414Z,20.4
2018-08-24T01:33:48.152Z,20.4
2018-08-24T01:34:37.651Z,20.4
2018-08-24T01:35:28.270Z,20.4
2018-08-24T01:36:18.623Z,20.4
2018-08-24T01:37:08.679Z,20.4
2018-08-24T01:37:58.691Z,20.4
2018-08-24T01:38:48.839Z,20.4
2018-08-24T01:39:38.858Z,20.4
2018-08-24T01:40:28.945Z,20.4
2018-08-24T01:41:18.715Z,20.4
2018-08-24T01:42:23.737Z,20.4
2018-08-24T01:42:58.812Z,20.4
2018-08-24T01:43:48.896Z,20.4
2018-08-24T01:44:39.010Z,20.4
2018-08-24T01:45:29.040Z,20.4
2018-08-24T01:46:18.800Z,20.4
2018-08-24T01:47:09.441Z,20.4
2018-08-24T01:47:59.522Z,20.4
2018-08-24T01:48:48.722Z,20.4
2018-08-24T01:49:40.047Z,20.4
2018-08-24T01:50:29.406Z,20.4
2018-08-24T01:51:19.775Z,20.4
2018-08-24T01:52:10.010Z,20.4
2018-08-24T01:52:59.894Z,20.4
2018-08-24T01:53:50.139Z,20.4
2018-08-24T01:54:40.257Z,20.4
2018-08-24T01:55:29.850Z,20.4
2018-08-24T01:56:19.859Z,20.4
2018-08-24T01:57:10.213Z,20.4
2018-08-24T01:58:00.286Z,20.4
2018-08-24T01:58:50.366Z,20.4
2018-08-24T01:59:40.375Z,20.4
2018-08-24T02:00:30.192Z,20.3
2018-08-24T02:01:20.534Z,20.3
2018-08-24T02:02:10.309Z,20.3
2018-08-24T02:03:00.119Z,20.3
2018-08-24T02:03:50.551Z,20.3
2018-08-24T02:04:41.060Z,20.3
2018-08-24T02:05:30.290Z,20.3
2018-08-24T02:06:20.934Z,20.3
2018-08-24T02:07:10.975Z,20.3
2018-08-24T02:08:01.066Z,20.3
2018-08-24T02:08:50.605Z,20.2
2018-08-24T02:09:56.095Z,20.2
2018-08-24T02:10:31.233Z,20.2
2018-08-24T02:11:21.006Z,20.2
2018-08-24T02:12:11.401Z,20.1
2018-08-24T02:13:00.581Z,20.2
2018-08-24T02:13:51.875Z,20.2
2018-08-24T02:14:41.561Z,20.2
2018-08-24T02:15:31.363Z,20.2
2018-08-24T02:16:21.386Z,20.1
2018-08-24T02:17:11.517Z,20.1
2018-08-24T02:18:01.538Z,20.1
2018-08-24T02:18:51.865Z,20.1
2018-08-24T02:19:41.650Z,20.1
2018-08-24T02:20:31.720Z,20.1
2018-08-24T02:21:21.541Z,20.1
2018-08-24T02:22:12.136Z,20.1
2018-08-24T02:23:02.202Z,20.1
2018-08-24T02:23:52.489Z,20.1
2018-08-24T02:24:41.798Z,20.1
2018-08-24T02:25:32.453Z,20.1
2018-08-24T02:26:21.609Z,20.1
2018-08-24T02:27:12.236Z,20.1
2018-08-24T02:28:02.409Z,20.1
2018-08-24T02:28:52.077Z,20.1
2018-08-24T02:29:41.890Z,20
2018-08-24T02:30:32.797Z,20
2018-08-24T02:31:23.106Z,20
2018-08-24T02:32:12.659Z,20
2018-08-24T02:33:02.684Z,20
2018-08-24T02:33:53.548Z,20
2018-08-24T02:34:43.327Z,20
2018-08-24T02:35:33.452Z,19.9
2018-08-24T02:36:22.667Z,19.9
2018-08-24T02:37:13.012Z,19.9
2018-08-24T02:38:17.437Z,19.9
2018-08-24T02:38:53.143Z,19.9
2018-08-24T02:39:43.492Z,19.9
2018-08-24T02:40:32.704Z,19.9
2018-08-24T02:41:23.611Z,19.9
2018-08-24T02:42:13.431Z,19.8
2018-08-24T02:43:03.767Z,19.9
2018-08-24T02:43:53.745Z,19.9
2018-08-24T02:44:44.388Z,19.8
2018-08-24T02:45:33.674Z,19.8
2018-08-24T02:46:24.200Z,19.8
2018-08-24T02:47:14.053Z,19.8
2018-08-24T02:48:04.112Z,19.8
2018-08-24T02:48:54.171Z,19.8
2018-08-24T02:49:43.952Z,19.8
2018-08-24T02:50:33.745Z,19.8
2018-08-24T02:51:24.053Z,19.8
2018-08-24T02:52:14.166Z,19.8
2018-08-24T02:53:04.470Z,19.7
2018-08-24T02:53:54.268Z,19.7
2018-08-24T02:54:44.344Z,19.6
2018-08-24T02:55:34.674Z,19.6
2018-08-24T02:56:24.429Z,19.6
2018-08-24T02:57:14.717Z,19.6
2018-08-24T02:58:04.927Z,19.6
2018-08-24T02:58:54.966Z,19.6
2018-08-24T02:59:44.704Z,19.6
2018-08-24T03:00:34.790Z,19.6
2018-08-24T03:01:25.335Z,19.6
2018-08-24T03:02:15.212Z,19.6
2018-08-24T03:03:04.989Z,19.6
2018-08-24T03:03:55.368Z,19.6
2018-08-24T03:04:45.360Z,19.6
2018-08-24T03:05:37.659Z,19.6
2018-08-24T03:06:25.220Z,19.5
2018-08-24T03:07:15.560Z,19.5
2018-08-24T03:08:05.759Z,19.6
2018-08-24T03:08:55.677Z,19.5
2018-08-24T03:09:46.040Z,19.5
2018-08-24T03:10:35.333Z,19.4
2018-08-24T03:11:25.896Z,19.4
2018-08-24T03:12:15.931Z,19.4
2018-08-24T03:13:05.779Z,19.4
2018-08-24T03:13:55.269Z,19.4
2018-08-24T03:14:45.340Z,19.4
2018-08-24T03:15:36.179Z,19.4
2018-08-24T03:16:26.704Z,19.4
2018-08-24T03:17:16.121Z,19.3
2018-08-24T03:18:05.847Z,19.3
2018-08-24T03:18:56.281Z,19.3
2018-08-24T03:19:45.715Z,19.3
2018-08-24T03:20:36.334Z,19.3
2018-08-24T03:21:26.676Z,19.3
2018-08-24T03:22:17.052Z,19.3
2018-08-24T03:23:06.513Z,19.3
2018-08-24T03:23:56.582Z,19.3
2018-08-24T03:24:46.166Z,19.2
2018-08-24T03:25:36.527Z,19.1
2018-08-24T03:26:26.559Z,19.1
2018-08-24T03:27:16.838Z,19.1
2018-08-24T03:28:07.190Z,19.1
2018-08-24T03:28:56.955Z,19.1
2018-08-24T03:29:47.254Z,19
2018-08-24T03:30:37.622Z,19
2018-08-24T03:31:27.511Z,19
2018-08-24T03:32:17.853Z,18.9
2018-08-24T03:33:07.539Z,18.9
2018-08-24T03:33:57.335Z,18.9
2018-08-24T03:34:47.395Z,18.9
2018-08-24T03:35:37.837Z,18.9
2018-08-24T03:36:27.853Z,18.9
2018-08-24T03:37:17.398Z,18.8
2018-08-24T03:38:07.220Z,18.8
2018-08-24T03:38:57.519Z,18.8
2018-08-24T03:39:48.110Z,18.8
2018-08-24T03:40:37.899Z,18.8
2018-08-24T03:41:28.215Z,18.8
2018-08-24T03:42:18.250Z,18.8
2018-08-24T03:43:08.372Z,18.8
2018-08-24T03:43:58.416Z,18.8
2018-08-24T03:44:47.920Z,18.8
2018-08-24T03:45:38.067Z,18.8
2018-08-24T03:46:28.076Z,18.8
2018-08-24T03:47:18.155Z,18.8
2018-08-24T03:49:48.919Z,18.8
2018-08-24T03:50:38.938Z,18.8
2018-08-24T03:51:29.045Z,18.8
2018-08-24T03:52:33.710Z,18.8
2018-08-24T03:53:58.891Z,18.8
2018-08-24T03:54:48.394Z,18.8
2018-08-24T03:55:39.270Z,18.8
2018-08-24T03:56:29.573Z,18.8
2018-08-24T03:57:19.387Z,18.8
2018-08-24T03:58:09.192Z,18.8
2018-08-24T03:58:59.773Z,18.8
2018-08-24T03:59:49.325Z,18.8
2018-08-24T04:00:39.407Z,18.8
2018-08-24T04:03:59.643Z,18.8
2018-08-24T04:04:49.441Z,18.8
2018-08-24T04:05:39.765Z,18.8
2018-08-24T04:06:30.121Z,18.8
2018-08-24T04:07:20.223Z,18.8
2018-08-24T04:08:09.974Z,18.8
2018-08-24T04:09:00.363Z,18.8
2018-08-24T04:09:50.361Z,18.8
2018-08-24T04:10:40.463Z,18.8
2018-08-24T04:11:30.547Z,18.8
2018-08-24T04:12:20.569Z,18.8
2018-08-24T04:13:10.847Z,18.8
2018-08-24T04:14:01.138Z,18.8
2018-08-24T04:14:50.483Z,18.8
2018-08-24T04:15:40.834Z,18.8
2018-08-24T04:16:30.337Z,18.8
2018-08-24T04:17:20.943Z,18.8
2018-08-24T04:18:11.024Z,18.8
2018-08-24T04:19:00.526Z,18.8
2018-08-24T04:19:51.220Z,18.8
2018-08-24T04:20:41.228Z,18.8
2018-08-24T04:21:31.304Z,18.8
2018-08-24T04:22:21.349Z,18.9
2018-08-24T04:23:11.153Z,18.9
2018-08-24T04:24:00.893Z,18.9
2018-08-24T04:24:51.558Z,18.9
2018-08-24T04:25:42.031Z,18.9
2018-08-24T04:26:31.694Z,18.9
2018-08-24T04:27:21.722Z,18.9
2018-08-24T04:28:11.792Z,18.9
2018-08-24T04:29:01.864Z,18.9
2018-08-24T04:29:51.898Z,18.9
2018-08-24T04:30:42.003Z,19
2018-08-24T04:31:32.104Z,18.9
2018-08-24T04:32:22.387Z,18.9
2018-08-24T04:33:12.176Z,19
2018-08-24T04:34:01.905Z,19.1
2018-08-24T04:34:52.601Z,19.1
2018-08-24T04:35:42.088Z,19.1
2018-08-24T04:36:31.860Z,19.1
2018-08-24T04:37:22.032Z,19.1
2018-08-24T04:38:12.496Z,19.1
2018-08-24T04:39:01.827Z,19.1
2018-08-24T04:39:52.388Z,19.1
2018-08-24T04:40:41.976Z,19.2
2018-08-24T04:41:32.527Z,19.2
2018-08-24T04:42:23.141Z,19.2
2018-08-24T05:00:24.428Z,19.5
2018-08-24T05:01:14.963Z,19.4
2018-08-24T05:02:05.040Z,19.4
2018-08-24T05:02:55.088Z,19.5
2018-08-24T05:03:44.876Z,19.6
2018-08-24T05:04:34.938Z,19.6
2018-08-24T05:05:25.527Z,19.8
2018-08-24T05:06:15.107Z,19.7
2018-08-24T05:07:05.113Z,19.7
2018-08-24T05:07:55.465Z,19.7
2018-08-24T05:08:45.241Z,19.7
2018-08-24T05:09:35.315Z,19.8
2018-08-24T05:10:25.942Z,19.7
2018-08-24T05:11:15.152Z,19.8
2018-08-24T05:12:05.208Z,19.7
2018-08-24T05:12:55.578Z,19.6
2018-08-24T05:13:45.915Z,19.7
2018-08-24T05:14:35.997Z,19.8
2018-08-24T05:15:26.115Z,19.8
2018-08-24T05:16:16.093Z,19.8
2018-08-24T05:17:05.590Z,19.8
2018-08-24T05:17:55.663Z,19.8
2018-08-24T05:18:46.010Z,19.9
2018-08-24T05:19:35.812Z,19.9
2018-08-24T05:20:26.387Z,19.9
2018-08-24T05:21:15.882Z,19.9
2018-08-24T05:22:05.979Z,19.9
2018-08-24T05:22:56.348Z,20
2018-08-24T05:23:46.409Z,20.1
2018-08-24T05:24:36.039Z,20.1
2018-08-24T05:25:26.516Z,20.3
2018-08-24T05:26:16.294Z,20.3
2018-08-24T05:27:06.634Z,20.2
2018-08-24T05:27:56.208Z,20.3
2018-08-24T05:28:46.795Z,20.3
2018-08-24T05:29:36.829Z,20.1
2018-08-24T05:30:26.893Z,20
2018-08-24T05:31:17.501Z,19.9
2018-08-24T05:32:07.342Z,20.1
2018-08-24T05:32:56.798Z,20.2
2018-08-24T05:33:46.849Z,20.3
2018-08-24T05:34:36.955Z,20.4
2018-08-24T05:35:27.055Z,20.4
2018-08-24T05:36:17.348Z,20.3
2018-08-24T05:37:06.834Z,20.6
2018-08-24T05:37:57.280Z,20.5
2018-08-24T05:38:47.269Z,20.5
2018-08-24T05:39:37.017Z,20.7
2018-08-24T05:40:27.648Z,20.4
2018-08-24T05:41:18.171Z,20.6
2018-08-24T05:42:08.349Z,20.6
2018-08-24T05:42:57.867Z,20.8
2018-08-24T05:43:47.913Z,20.9
2018-08-24T05:44:38.275Z,21
2018-08-24T05:45:28.585Z,21.1
2018-08-24T05:46:18.415Z,21.1
2018-08-24T05:47:07.939Z,21
2018-08-24T05:47:58.524Z,21.1
2018-08-24T05:48:48.889Z,21.1
2018-08-24T05:49:38.659Z,21.1
2018-08-24T05:50:28.567Z,21.1
2018-08-24T05:51:18.511Z,21.2
2018-08-24T05:52:08.839Z,21.3
2018-08-24T05:52:58.341Z,21.3
2018-08-24T05:53:48.664Z,21.4
2018-08-24T05:54:39.019Z,21.4
2018-08-24T05:55:28.917Z,21.6
2018-08-24T05:56:19.192Z,21.5
2018-08-24T05:57:09.459Z,21.3
2018-08-24T05:57:58.136Z,21.3
2018-08-24T05:58:49.371Z,21.4
2018-08-24T05:59:38.259Z,21.4
2018-08-24T06:00:29.517Z,21.4
2018-08-24T06:01:18.979Z,21.4
2018-08-24T06:02:09.626Z,21.4
2018-08-24T06:02:59.909Z,21.6
2018-08-24T06:03:49.731Z,21.6
2018-08-24T06:04:39.804Z,21.6
2018-08-24T06:05:29.847Z,21.6
2018-08-24T06:06:19.926Z,21.5
2018-08-24T06:07:09.983Z,21.5
2018-08-24T06:07:59.763Z,21.6
2018-08-24T06:08:49.827Z,21.5
2018-08-24T06:09:40.178Z,21.6
2018-08-24T06:10:30.266Z,21.6
2018-08-24T06:11:20.306Z,21.8
2018-08-24T06:12:10.366Z,21.6
2018-08-24T06:13:00.424Z,21.7
2018-08-24T06:13:50.509Z,21.8
2018-08-24T06:14:40.606Z,21.8
2018-08-24T06:15:30.624Z,21.7
2018-08-24T06:16:20.430Z,21.6
2018-08-24T06:17:10.779Z,21.8
2018-08-24T06:18:00.811Z,21.8
2018-08-24T06:18:50.611Z,21.9
2018-08-24T06:19:40.666Z,22.1
2018-08-24T06:20:30.447Z,22.3
2018-08-24T06:21:20.851Z,22.1
2018-08-24T06:22:10.883Z,22.3
2018-08-24T06:23:00.940Z,22.5
2018-08-24T06:23:50.417Z,22.3
2018-08-24T06:24:40.953Z,22.1
2018-08-24T06:25:31.388Z,22.1
2018-08-24T06:26:21.462Z,22.1
2018-08-24T06:27:11.247Z,22.1
2018-08-24T06:28:00.731Z,22.1
2018-08-24T06:28:51.109Z,22.3
2018-08-24T06:29:41.456Z,22.6
2018-08-24T06:30:31.509Z,22.6
2018-08-24T06:31:21.845Z,22.4
2018-08-24T06:32:11.910Z,22.4
2018-08-24T06:33:02.244Z,22.5
2018-08-24T06:33:51.778Z,22.5
2018-08-24T06:34:42.127Z,22.6
2018-08-24T06:35:31.593Z,22.6
2018-08-24T06:36:22.222Z,22.8
2018-08-24T06:37:11.723Z,22.6
2018-08-24T06:38:02.063Z,22.7
2018-08-24T06:38:52.438Z,22.9
2018-08-24T06:39:42.196Z,22.8
2018-08-24T06:40:32.530Z,23.1
2018-08-24T06:41:22.570Z,23
2018-08-24T06:42:12.653Z,23
2018-08-24T06:43:02.745Z,23.3
2018-08-24T06:43:52.073Z,23.3
2018-08-24T06:44:42.852Z,23.3
2018-08-24T06:45:32.635Z,23.4
2018-08-24T06:46:23.022Z,23.4
2018-08-24T06:47:13.303Z,23.4
2018-08-24T06:48:03.175Z,23.5
2018-08-24T06:48:53.224Z,23.4
2018-08-24T06:49:43.251Z,23.5
2018-08-24T06:50:33.010Z,23.6
2018-08-24T06:51:23.061Z,23.4
2018-08-24T06:52:13.145Z,23.2
2018-08-24T06:53:03.260Z,23.4
2018-08-24T06:53:54.351Z,23.3
2018-08-24T06:54:43.063Z,23.4
2018-08-24T06:55:33.686Z,23.8
2018-08-24T06:56:23.823Z,23.9
2018-08-24T06:57:13.542Z,23.8
2018-08-24T06:58:03.907Z,23.8
2018-08-24T06:58:53.963Z,23.9
2018-08-24T06:59:44.449Z,24.2
2018-08-24T07:00:33.801Z,24.2
2018-08-24T07:01:24.154Z,24.6
2018-08-24T07:02:13.970Z,24.8
2018-08-24T07:03:04.289Z,24.7
2018-08-24T07:03:54.331Z,24.6
2018-08-24T07:04:44.403Z,24.5
2018-08-24T07:05:34.481Z,24.3
2018-08-24T07:06:24.064Z,24.3
2018-08-24T07:07:14.306Z,24.4
2018-08-24T07:08:04.196Z,24.7
2018-08-24T07:08:54.454Z,24.8
2018-08-24T07:09:44.750Z,24.4
2018-08-24T07:10:34.887Z,24.4
2018-08-24T07:11:24.931Z,24.4
2018-08-24T07:12:15.003Z,24.4
2018-08-24T07:13:05.105Z,24.3
2018-08-24T07:13:55.167Z,24.3
2018-08-24T07:14:45.448Z,24.7
2018-08-24T07:15:35.277Z,24.7
2018-08-24T07:16:25.321Z,24.6
2018-08-24T07:17:15.364Z,24.8
2018-08-24T07:18:05.138Z,24.7
2018-08-24T07:18:54.771Z,25
2018-08-24T07:19:45.269Z,25.1
2018-08-24T07:20:35.340Z,25.2
2018-08-24T07:21:25.412Z,25.3
2018-08-24T07:22:15.458Z,25.3
2018-08-24T07:23:05.541Z,25.6
2018-08-24T07:23:56.141Z,25.7
2018-08-24T07:24:45.933Z,25.8
2018-08-24T07:25:35.728Z,26
2018-08-24T07:26:25.810Z,26.1
2018-08-24T07:27:15.863Z,25.2
2018-08-24T07:28:06.232Z,25.4
2018-08-24T07:28:56.547Z,25.5
2018-08-24T07:29:45.823Z,25.3
2018-08-24T07:30:36.131Z,24.9
2018-08-24T07:31:26.464Z,24.8
2018-08-24T07:32:16.273Z,24.8
2018-08-24T07:33:06.319Z,24.6
2018-08-24T07:33:56.625Z,24.6
2018-08-24T07:34:46.982Z,24.8
2018-08-24T07:35:36.522Z,24.9
2018-08-24T07:36:26.579Z,25.4
2018-08-24T07:37:16.922Z,25.5
2018-08-24T07:38:06.717Z,25.4
2018-08-24T07:38:56.795Z,25.2
2018-08-24T07:39:47.097Z,25.1
2018-08-24T07:40:37.182Z,24.6
2018-08-24T07:41:27.491Z,24.3
2018-08-24T07:42:17.320Z,24.6
2018-08-24T07:43:07.341Z,24.5
2018-08-24T07:43:56.898Z,24.8
2018-08-24T07:44:46.939Z,25.1
2018-08-24T07:45:37.570Z,25.1
2018-08-24T07:46:27.134Z,25.2
2018-08-24T07:47:17.430Z,25.5
2018-08-24T07:48:07.490Z,25.9
2018-08-24T07:48:57.912Z,26.4
2018-08-24T07:49:47.856Z,26.7
2018-08-24T07:50:37.976Z,26.3
2018-08-24T07:51:27.693Z,26.3
2018-08-24T07:52:18.089Z,25.9
2018-08-24T07:53:08.157Z,25.9
2018-08-24T07:53:58.221Z,26
2018-08-24T07:54:47.672Z,26.5
2018-08-24T07:55:38.124Z,26.5
2018-08-24T07:56:28.379Z,26.3
2018-08-24T07:57:18.220Z,26.1
2018-08-24T07:58:08.781Z,25.9
2018-08-24T07:58:58.601Z,25.9
2018-08-24T07:59:48.679Z,26.1
2018-08-24T08:00:38.264Z,26.2
2018-08-24T08:01:28.814Z,26.3
2018-08-24T08:02:18.863Z,26.3
2018-08-24T08:03:09.198Z,26.3
2018-08-24T08:03:58.701Z,26.4
2018-08-24T08:04:49.077Z,26.4
2018-08-24T08:05:39.154Z,26
2018-08-24T08:06:28.748Z,26.1
2018-08-24T08:07:19.250Z,26.3
2018-08-24T08:08:08.769Z,26.5
2018-08-24T08:08:59.092Z,26.8
2018-08-24T08:09:49.487Z,27.1
2018-08-24T08:10:38.940Z,27.1
2018-08-24T08:11:29.568Z,26.6
2018-08-24T08:12:19.071Z,26.6
2018-08-24T08:13:09.433Z,26.9
2018-08-24T08:13:59.789Z,27.3
2018-08-24T08:14:49.838Z,26.9
2018-08-24T08:15:39.927Z,26.3
2018-08-24T08:16:29.687Z,26.1
2018-08-24T08:17:19.497Z,26.1
2018-08-24T08:18:10.572Z,26.4
2018-08-24T08:19:00.165Z,26.9
2018-08-24T08:19:50.274Z,26.8
2018-08-24T08:20:40.312Z,26.6
2018-08-24T08:21:30.074Z,26.9
2018-08-24T08:22:20.454Z,27.2
2018-08-24T08:23:10.507Z,27.4
2018-08-24T08:24:00.542Z,27
2018-08-24T08:24:51.618Z,26.8
2018-08-24T08:25:40.417Z,27.1
2018-08-24T08:26:30.468Z,26.9
2018-08-24T08:27:20.812Z,26.9
2018-08-24T08:28:10.908Z,26.8
2018-08-24T08:29:01.181Z,27.4
2018-08-24T08:29:50.723Z,27.8
2018-08-24T08:30:40.592Z,27.9
2018-08-24T08:31:30.846Z,27.7
2018-08-24T08:32:21.193Z,27
2018-08-24T08:33:11.261Z,27.3
2018-08-24T08:34:01.309Z,27.1
2018-08-24T08:34:51.413Z,26.9
2018-08-24T08:35:41.701Z,26.7
2018-08-24T08:36:31.533Z,27.1
2018-08-24T08:37:21.880Z,27.6
2018-08-24T08:38:11.390Z,27.9
2018-08-24T08:39:02.113Z,28.1
2018-08-24T08:39:51.018Z,27.8
2018-08-24T08:40:41.540Z,27.1
2018-08-24T08:41:31.625Z,27.4
2018-08-24T08:42:21.956Z,27.5
2018-08-24T08:43:12.028Z,27.1
2018-08-24T08:44:02.121Z,27.1
2018-08-24T08:44:51.947Z,27.4
2018-08-24T08:45:41.967Z,27.9
2018-08-24T08:46:32.328Z,28.3
2018-08-24T08:47:22.092Z,28.1
2018-08-24T08:48:11.866Z,27.9
2018-08-24T08:49:02.242Z,27.9
2018-08-24T08:49:52.285Z,28
2018-08-24T08:50:42.643Z,27.6
2018-08-24T08:51:32.699Z,28.3
2018-08-24T08:52:23.019Z,28.2
2018-08-24T08:53:12.841Z,28.3
2018-08-24T08:54:02.909Z,28.5
2018-08-24T08:54:52.994Z,28.1
2018-08-24T08:55:42.470Z,28.6
2018-08-24T08:56:32.598Z,28.9
2018-08-24T08:57:23.121Z,29
2018-08-24T08:58:12.907Z,28.9
2018-08-24T09:14:55.086Z,27.6
2018-08-24T09:15:44.329Z,28.3
2018-08-24T09:16:34.388Z,28.6
2018-08-24T09:17:24.455Z,28.3
2018-08-24T09:18:14.582Z,27.5
2018-08-24T09:19:04.596Z,28
2018-08-24T09:19:55.140Z,28
2018-08-24T09:20:44.463Z,28.4
2018-08-24T09:21:34.800Z,28.9
2018-08-24T09:22:24.861Z,29.3
2018-08-24T09:23:14.331Z,29.2
2018-08-24T09:24:04.724Z,29.1
2018-08-24T09:24:55.045Z,29.2
2018-08-24T09:25:45.680Z,29.2
2018-08-24T09:26:35.163Z,28.7
2018-08-24T09:27:24.990Z,28.3
2018-08-24T09:28:15.289Z,28.6
2018-08-24T09:29:05.405Z,29.4
2018-08-24T09:29:55.208Z,29
2018-08-24T09:30:45.216Z,28.8
2018-08-24T09:31:35.306Z,28.9
2018-08-24T09:32:26.283Z,28.2
2018-08-24T09:33:15.194Z,27.8
2018-08-24T09:34:55.253Z,28.4
2018-08-24T09:35:45.611Z,28.9
2018-08-24T09:36:35.692Z,29.1
2018-08-24T09:37:25.761Z,28.6
2018-08-24T09:38:15.591Z,28.2
2018-08-24T09:39:05.901Z,28.4
2018-08-24T09:39:55.751Z,28.1
2018-08-24T09:41:36.372Z,28.2
2018-08-24T09:42:26.145Z,28.9
2018-08-24T09:43:16.228Z,29.3
2018-08-24T09:44:06.789Z,29.2
2018-08-24T09:44:56.390Z,28.9
2018-08-24T09:45:45.843Z,28.6
2018-08-24T09:46:36.268Z,28.6
2018-08-24T09:47:26.229Z,28.7
2018-08-24T09:48:16.886Z,28.7
2018-08-24T09:49:07.825Z,28.3
2018-08-24T09:49:57.012Z,28.5
2018-08-24T09:50:46.848Z,28.8
2018-08-24T09:51:37.150Z,29.3
2018-08-24T09:52:27.305Z,28.7
2018-08-24T09:53:17.039Z,29.3
2018-08-24T09:54:07.021Z,28.8
2018-08-24T09:54:56.849Z,28.9
2018-08-24T09:55:47.456Z,28.8
2018-08-24T09:56:37.548Z,28.4
2018-08-24T09:57:27.621Z,28.1
2018-08-24T09:58:17.664Z,28.3
2018-08-24T09:59:07.702Z,28.9
2018-08-24T09:59:57.801Z,28.6
2018-08-24T10:00:47.319Z,28.9
2018-08-24T10:01:37.926Z,28.7
2018-08-24T10:02:28.038Z,29.6
2018-08-24T10:03:17.783Z,29.7
2018-08-24T10:04:08.131Z,29.6
2018-08-24T10:04:57.890Z,29.9
2018-08-24T10:05:47.969Z,30.6
2018-08-24T10:06:38.254Z,30.4
2018-08-24T10:07:28.445Z,30
2018-08-24T10:08:18.158Z,29.5
2018-08-24T10:09:08.554Z,29.8
2018-08-24T10:09:58.823Z,29.9
2018-08-24T10:10:48.357Z,30.1
2018-08-24T10:11:38.451Z,30.2
2018-08-24T10:12:28.868Z,29.8
2018-08-24T10:13:18.612Z,30
2018-08-24T10:14:08.636Z,29.4
2018-08-24T10:14:58.480Z,29.9
2018-08-24T10:15:48.787Z,30.4
2018-08-24T10:16:39.105Z,29.8
2018-08-24T10:17:28.897Z,29.9
2018-08-24T10:18:18.943Z,29.7
2018-08-24T10:19:09.274Z,29.4
2018-08-24T10:19:59.385Z,30.1
2018-08-24T10:20:49.413Z,30
2018-08-24T10:21:39.485Z,29.6
2018-08-24T10:22:29.266Z,29.4
2018-08-24T10:23:19.575Z,28.8
2018-08-24T10:24:09.686Z,29.3
2018-08-24T10:24:59.989Z,29.8
2018-08-24T10:25:49.821Z,29.9
2018-08-24T10:26:39.604Z,30.1
2018-08-24T10:27:29.685Z,30.6
2018-08-24T10:28:20.268Z,30.4
2018-08-24T10:29:10.449Z,29.9
2018-08-24T10:30:00.126Z,30.2
2018-08-24T10:30:49.944Z,30.6
2018-08-24T10:31:39.988Z,30.1
2018-08-24T10:32:30.357Z,29.7
2018-08-24T10:33:20.664Z,30.1
2018-08-24T10:34:10.521Z,30.5
2018-08-24T10:35:00.583Z,29.3
2018-08-24T10:35:50.616Z,29.2
2018-08-24T10:36:40.652Z,29.6
2018-08-24T10:37:30.464Z,30.2
2018-08-24T10:38:20.823Z,30.3
2018-08-24T10:39:11.612Z,30.1
2018-08-24T10:40:00.939Z,30.2
2018-08-24T10:40:51.181Z,29.4
2018-08-24T10:41:40.794Z,29.3
2018-08-24T10:42:30.870Z,29.8
2018-08-24T10:43:20.910Z,29.4
2018-08-24T10:44:11.012Z,29.1
2018-08-24T10:45:01.306Z,29.8
2018-08-24T10:45:51.395Z,30.1
2018-08-24T10:46:40.863Z,30.1
2018-08-24T10:47:31.000Z,29.8
2018-08-24T10:48:21.605Z,29.9
2018-08-24T10:49:11.253Z,29.8
2018-08-24T10:50:01.728Z,29.4
2018-08-24T10:50:51.820Z,29.3
2018-08-24T10:51:41.277Z,29.6
2018-08-24T10:52:31.620Z,29.5
2018-08-24T10:53:21.709Z,30
2018-08-24T10:54:11.775Z,30.4
2018-08-24T10:55:03.416Z,30.4
2018-08-24T10:55:52.743Z,30.5
2018-08-24T10:56:41.694Z,30.4
2018-08-24T10:57:31.772Z,30.5
2018-08-24T10:58:22.075Z,30.8
2018-08-24T10:59:12.448Z,31.1
2018-08-24T11:00:02.273Z,30.4
2018-08-24T11:00:52.287Z,29.9
2018-08-24T11:01:42.631Z,30.3
2018-08-24T11:02:32.975Z,30.2
2018-08-24T11:03:22.774Z,29.8
2018-08-24T11:04:12.258Z,29.9
2018-08-24T11:05:02.064Z,30.2
2018-08-24T11:05:52.747Z,30.2
2018-08-24T11:06:42.759Z,29.5
2018-08-24T11:07:33.455Z,29.3
2018-08-24T11:08:22.669Z,29.4
2018-08-24T11:09:13.241Z,29.6
2018-08-24T11:10:03.279Z,30.1
2018-08-24T11:10:53.094Z,30.7
2018-08-24T11:11:43.152Z,29.8
2018-08-24T11:12:32.410Z,29.4
2018-08-24T11:13:23.566Z,29.2
2018-08-24T11:14:13.054Z,29.1
2018-08-24T11:15:03.717Z,29.1
2018-08-24T11:15:53.486Z,28.9
2018-08-24T11:16:44.162Z,29.2
2018-08-24T11:17:33.883Z,29.1
2018-08-24T11:18:24.033Z,29.2
2018-08-24T11:19:13.785Z,29.8
2018-08-24T11:20:03.299Z,29.3
2018-08-24T11:20:53.938Z,30.1
2018-08-24T11:21:44.221Z,30.1
2018-08-24T11:22:33.995Z,30.8
2018-08-24T11:23:24.377Z,30.9
2018-08-24T11:24:14.443Z,30.5
2018-08-24T11:25:04.222Z,30.6
2018-08-24T11:25:54.255Z,30.1
2018-08-24T11:26:44.874Z,30.1
2018-08-24T11:27:34.382Z,30.2
2018-08-24T11:28:24.746Z,30.1
2018-08-24T11:29:14.904Z,30.1
2018-08-24T11:30:04.615Z,30.6
2018-08-24T11:30:54.382Z,30.1
2018-08-24T11:31:44.726Z,30.4
2018-08-24T11:32:35.065Z,30.4
2018-08-24T11:33:24.953Z,30.3
2018-08-24T11:34:15.211Z,30.1
2018-08-24T11:35:05.271Z,30.1
2018-08-24T11:35:55.719Z,30.4
2018-08-24T11:36:45.087Z,31.2
2018-08-24T11:37:34.872Z,31.3
2018-08-24T11:38:24.688Z,31.5
2018-08-24T11:39:15.617Z,31.2
2018-08-24T11:40:05.640Z,30.9
2018-08-24T11:40:55.739Z,30.3
2018-08-24T11:41:46.235Z,29.9
2018-08-24T11:42:35.859Z,29.6
2018-08-24T11:43:25.339Z,29.8
2018-08-24T11:44:15.982Z,30.1
2018-08-24T11:45:06.048Z,30
2018-08-24T11:45:55.555Z,29.5
2018-08-24T11:46:46.150Z,29.3
2018-08-24T11:47:35.685Z,30
2018-08-24T11:48:26.565Z,30.4
2018-08-24T11:49:16.109Z,30.8
2018-08-24T11:50:06.439Z,30.3
2018-08-24T11:50:55.928Z,29.9
2018-08-24T11:51:46.554Z,29.9
2018-08-24T11:52:36.360Z,29.8
2018-08-24T11:53:26.936Z,30.4
2018-08-24T11:54:17.612Z,30.7
2018-08-24T11:55:06.572Z,30.4
2018-08-24T11:55:56.935Z,30.7
2018-08-24T11:56:46.709Z,31.1
2018-08-24T11:57:36.751Z,30.1
2018-08-24T11:58:27.826Z,30.4
2018-08-24T11:59:17.148Z,30.4
2018-08-24T12:00:07.221Z,30.3
2018-08-24T12:00:57.303Z,29.8
2018-08-24T12:01:47.337Z,29.8
2018-08-24T12:02:37.423Z,30.3
2018-08-24T12:03:27.210Z,30.5
2018-08-24T12:04:17.274Z,30.3
2018-08-24T12:05:07.591Z,30.4
2018-08-24T12:05:57.383Z,30.3
2018-08-24T12:06:47.435Z,30.3